createdAt,value
2023-04-24T00:02:16.666Z,1.80
2023-04-24T00:04:46.070Z,0.80
2023-04-24T00:07:18.822Z,1.13
2023-04-24T00:09:46.873Z,0.67
2023-04-24T00:12:14.945Z,3.03
2023-04-24T00:14:43.061Z,0.80
2023-04-24T00:17:11.091Z,1.23
2023-04-24T00:19:39.150Z,1.00
2023-04-24T00:22:07.408Z,1.27
2023-04-24T00:24:43.869Z,2.57
2023-04-24T00:27:38.289Z,0.83
2023-04-24T00:30:07.777Z,0.63
2023-04-24T00:32:35.941Z,1.40
2023-04-24T00:35:04.165Z,0.80
2023-04-24T00:37:32.247Z,0.60
2023-04-24T00:40:01.652Z,0.70
2023-04-24T00:42:29.728Z,1.60
2023-04-24T00:44:58.195Z,0.73
2023-04-24T00:47:27.516Z,0.80
2023-04-24T00:49:55.500Z,0.80
2023-04-24T00:52:25.321Z,0.87
2023-04-24T00:54:53.396Z,0.67
2023-04-24T00:57:24.765Z,1.07
2023-04-24T00:59:53.195Z,0.80
2023-04-24T01:02:22.445Z,2.43
2023-04-24T01:04:51.791Z,0.63
2023-04-24T01:07:22.083Z,1.90
2023-04-24T01:09:52.372Z,0.70
2023-04-24T01:12:21.891Z,3.53
2023-04-24T01:14:49.986Z,0.77
2023-04-24T01:17:18.169Z,0.50
2023-04-24T01:19:46.829Z,0.70
2023-04-24T01:22:17.305Z,0.70
2023-04-24T01:24:45.668Z,1.13
2023-04-24T01:27:14.396Z,1.07
2023-04-24T01:29:42.678Z,1.23
2023-04-24T01:32:12.127Z,2.13
2023-04-24T01:34:40.687Z,1.80
2023-04-24T01:37:08.776Z,1.20
2023-04-24T01:39:38.603Z,1.30
2023-04-24T01:42:07.184Z,2.30
2023-04-24T01:44:35.727Z,1.47
2023-04-24T01:47:05.970Z,1.60
2023-04-24T01:49:34.125Z,2.50
2023-04-24T01:52:02.073Z,2.10
2023-04-24T01:54:32.682Z,1.77
2023-04-24T01:57:03.055Z,1.70
2023-04-24T01:59:32.214Z,1.40
2023-04-24T02:02:00.253Z,1.70
2023-04-24T02:04:28.625Z,2.40
2023-04-24T02:06:56.663Z,2.33
2023-04-24T02:09:26.161Z,2.00
2023-04-24T02:11:54.212Z,2.17
2023-04-24T02:14:23.579Z,3.47
2023-04-24T02:16:51.726Z,5.33
2023-04-24T02:19:19.774Z,3.80
2023-04-24T02:21:47.845Z,3.30
2023-04-24T02:24:16.920Z,3.20
2023-04-24T02:26:44.951Z,3.40
2023-04-24T02:29:12.967Z,3.30
2023-04-24T02:31:42.422Z,3.30
2023-04-24T02:34:11.388Z,3.33
2023-04-24T02:36:39.379Z,3.80
2023-04-24T02:39:07.640Z,3.67
2023-04-24T02:41:35.617Z,3.37
2023-04-24T02:44:03.632Z,3.63
2023-04-24T02:46:31.833Z,4.20
2023-04-24T02:49:01.358Z,5.03
2023-04-24T02:51:29.807Z,3.63
2023-04-24T02:53:57.839Z,6.20
2023-04-24T02:56:26.035Z,4.00
2023-04-24T02:58:54.615Z,4.23
2023-04-24T03:01:22.706Z,3.93
2023-04-24T03:03:50.971Z,6.07
2023-04-24T03:06:22.002Z,5.00
2023-04-24T03:08:49.974Z,4.50
2023-04-24T03:11:17.876Z,5.77
2023-04-24T03:13:45.891Z,4.77
2023-04-24T03:16:13.886Z,5.00
2023-04-24T03:18:41.808Z,5.67
2023-04-24T03:21:10.612Z,6.07
2023-04-24T03:23:40.106Z,5.40
2023-04-24T03:26:09.141Z,5.17
2023-04-24T03:28:40.540Z,4.90
2023-04-24T03:31:09.143Z,5.13
2023-04-24T03:33:38.667Z,5.57
2023-04-24T03:36:08.800Z,5.20
2023-04-24T03:38:42.114Z,7.53
2023-04-24T03:41:39.200Z,4.77
2023-04-24T03:44:14.096Z,4.80
2023-04-24T03:46:42.681Z,4.43
2023-04-24T03:49:10.948Z,4.53
2023-04-24T03:51:43.234Z,5.43
2023-04-24T03:54:23.136Z,4.87
2023-04-24T03:56:52.638Z,5.93
2023-04-24T03:59:20.799Z,4.67
2023-04-24T04:01:58.916Z,5.27
2023-04-24T04:04:27.057Z,4.57
2023-04-24T04:06:55.444Z,5.07
2023-04-24T04:09:25.614Z,5.20
2023-04-24T04:11:53.636Z,4.80
2023-04-24T04:14:21.704Z,4.83
2023-04-24T04:16:51.071Z,4.97
2023-04-24T04:19:21.697Z,5.40
2023-04-24T04:21:54.026Z,5.40
2023-04-24T04:24:31.035Z,5.40
2023-04-24T04:27:01.470Z,5.27
2023-04-24T04:29:33.748Z,5.30
2023-04-24T04:32:03.603Z,9.90
2023-04-24T04:34:32.663Z,4.90
2023-04-24T04:37:02.028Z,6.57
2023-04-24T04:39:44.836Z,5.40
2023-04-24T04:42:19.959Z,4.90
2023-04-24T04:44:47.988Z,5.20
2023-04-24T04:47:20.412Z,4.87
2023-04-24T04:49:49.086Z,5.33
2023-04-24T04:52:21.371Z,5.07
2023-04-24T04:54:55.578Z,7.63
2023-04-24T04:57:27.807Z,5.87
2023-04-24T04:59:55.922Z,6.50
2023-04-24T05:02:37.882Z,6.83
2023-04-24T05:05:07.288Z,4.90
2023-04-24T05:07:35.410Z,7.47
2023-04-24T05:10:05.678Z,8.70
2023-04-24T05:12:33.766Z,5.83
2023-04-24T05:15:03.800Z,4.73
2023-04-24T05:17:32.094Z,5.13
2023-04-24T05:20:01.662Z,5.47
2023-04-24T05:22:31.699Z,4.73
2023-04-24T05:25:00.154Z,6.03
2023-04-24T05:27:40.236Z,4.80
2023-04-24T05:30:15.121Z,4.20
2023-04-24T05:32:43.279Z,4.60
2023-04-24T05:35:11.295Z,4.53
2023-04-24T05:37:39.383Z,4.97
2023-04-24T05:40:09.952Z,4.53
2023-04-24T05:42:39.546Z,5.97
2023-04-24T05:45:08.908Z,5.67
2023-04-24T05:47:37.179Z,5.83
2023-04-24T05:50:05.748Z,5.80
2023-04-24T05:52:33.813Z,5.47
2023-04-24T05:55:05.482Z,4.50
2023-04-24T05:57:40.347Z,5.20
2023-04-24T06:00:09.971Z,5.33
2023-04-24T06:02:44.086Z,4.90
2023-04-24T06:05:16.144Z,5.40
2023-04-24T06:07:44.213Z,6.67
2023-04-24T06:10:12.434Z,4.60
2023-04-24T06:12:47.296Z,4.67
2023-04-24T06:15:18.989Z,4.73
2023-04-24T06:18:13.750Z,5.77
2023-04-24T06:20:43.053Z,4.90
2023-04-24T06:23:11.845Z,4.87
2023-04-24T06:25:39.963Z,6.53
2023-04-24T06:28:09.398Z,5.10
2023-04-24T06:30:37.371Z,4.97
2023-04-24T06:33:16.840Z,5.73
2023-04-24T06:35:47.985Z,6.17
2023-04-24T06:38:17.012Z,5.10
2023-04-24T06:40:45.183Z,4.90
2023-04-24T06:43:15.825Z,6.20
2023-04-24T06:45:44.775Z,5.60
2023-04-24T06:48:12.928Z,6.13
2023-04-24T06:50:40.982Z,4.90
2023-04-24T06:53:09.335Z,4.67
2023-04-24T06:55:38.010Z,4.83
2023-04-24T06:58:07.074Z,4.10
2023-04-24T07:00:36.577Z,4.10
2023-04-24T07:03:06.322Z,4.30
2023-04-24T07:05:36.092Z,4.20
2023-04-24T07:08:04.230Z,4.50
2023-04-24T07:10:32.353Z,4.10
2023-04-24T07:13:00.457Z,3.60
2023-04-24T07:15:28.616Z,3.60
2023-04-24T07:17:58.102Z,2.93
2023-04-24T07:20:26.176Z,3.20
2023-04-24T07:22:54.974Z,2.60
2023-04-24T07:25:22.892Z,2.67
2023-04-24T07:27:51.254Z,2.70
2023-04-24T07:30:19.241Z,4.10
2023-04-24T07:32:47.214Z,2.60
2023-04-24T07:35:16.634Z,3.17
2023-04-24T07:37:46.958Z,2.70
2023-04-24T07:40:16.683Z,2.20
2023-04-24T07:42:44.862Z,1.90
2023-04-24T07:45:13.007Z,2.10
2023-04-24T07:47:41.543Z,2.23
2023-04-24T07:50:09.913Z,1.90
2023-04-24T07:52:39.421Z,2.00
2023-04-24T07:55:08.190Z,3.90
2023-04-24T07:57:36.277Z,1.90
2023-04-24T08:00:05.594Z,2.13
2023-04-24T08:02:39.700Z,1.90
2023-04-24T08:05:08.732Z,1.50
2023-04-24T08:07:37.349Z,2.17
2023-04-24T08:10:08.294Z,1.70
2023-04-24T08:12:36.251Z,2.07
2023-04-24T08:15:04.610Z,1.53
2023-04-24T08:17:32.634Z,1.50
2023-04-24T08:20:02.585Z,1.57
2023-04-24T08:22:32.270Z,1.87
2023-04-24T08:25:02.629Z,1.77
2023-04-24T08:27:32.762Z,1.80
2023-04-24T08:30:01.040Z,2.13
2023-04-24T08:32:30.025Z,1.80
2023-04-24T08:34:58.397Z,2.30
2023-04-24T08:37:27.609Z,1.90
2023-04-24T08:39:55.808Z,2.40
2023-04-24T08:42:23.990Z,2.57
2023-04-24T08:44:54.741Z,1.70
2023-04-24T08:47:23.213Z,2.33
2023-04-24T08:49:52.464Z,3.80
2023-04-24T08:52:21.149Z,2.60
2023-04-24T08:54:50.105Z,2.97
2023-04-24T08:57:19.741Z,3.43
2023-04-24T08:59:47.932Z,2.77
2023-04-24T09:02:18.429Z,4.97
2023-04-24T09:04:47.591Z,3.70
2023-04-24T09:07:17.779Z,4.07
2023-04-24T09:09:46.418Z,4.73
2023-04-24T09:12:14.937Z,4.27
2023-04-24T09:14:46.224Z,3.83
2023-04-24T09:17:16.517Z,3.60
2023-04-24T09:19:46.431Z,3.83
2023-04-24T09:22:14.678Z,4.00
2023-04-24T09:24:42.955Z,4.83
2023-04-24T09:27:14.192Z,4.53
2023-04-24T09:29:55.554Z,4.67
2023-04-24T09:32:26.174Z,4.03
2023-04-24T09:35:09.840Z,5.00
2023-04-24T09:37:39.340Z,5.63
2023-04-24T09:40:18.361Z,4.77
2023-04-24T09:42:47.605Z,4.57
2023-04-24T09:45:16.380Z,3.50
2023-04-24T09:47:44.817Z,6.90
2023-04-24T09:50:16.879Z,3.30
2023-04-24T09:52:46.797Z,6.63
2023-04-24T09:55:20.730Z,3.77
2023-04-24T09:57:52.867Z,3.90
2023-04-24T10:00:24.277Z,4.20
2023-04-24T10:02:54.296Z,5.60
2023-04-24T10:05:27.507Z,3.60
2023-04-24T10:07:59.232Z,3.87
2023-04-24T10:10:28.143Z,4.53
2023-04-24T10:12:57.151Z,4.00
2023-04-24T10:15:25.742Z,3.40
2023-04-24T10:17:54.375Z,3.50
2023-04-24T10:20:24.056Z,4.03
2023-04-24T10:22:55.280Z,3.93
2023-04-24T10:25:24.744Z,5.43
2023-04-24T10:27:53.546Z,4.20
2023-04-24T10:30:22.318Z,4.23
2023-04-24T10:32:50.803Z,3.60
2023-04-24T10:35:23.844Z,4.33
2023-04-24T10:37:57.428Z,4.93
2023-04-24T10:40:29.297Z,6.67
2023-04-24T10:42:58.999Z,4.03
2023-04-24T10:45:27.831Z,3.60
2023-04-24T10:48:00.464Z,5.10
2023-04-24T10:50:30.313Z,5.10
2023-04-24T10:53:10.366Z,6.60
2023-04-24T10:55:43.727Z,6.03
2023-04-24T10:58:12.523Z,5.33
2023-04-24T11:00:42.266Z,6.33
2023-04-24T11:03:25.587Z,6.10
2023-04-24T11:05:56.381Z,9.23
2023-04-24T11:08:28.723Z,6.73
2023-04-24T11:10:59.525Z,6.60
2023-04-24T11:13:29.390Z,6.03
2023-04-24T11:16:15.031Z,8.13
2023-04-24T11:18:46.672Z,5.93
2023-04-24T11:21:15.466Z,7.13
2023-04-24T11:23:45.202Z,7.97
2023-04-24T11:26:15.189Z,8.73
2023-04-24T11:28:48.068Z,6.30
2023-04-24T11:31:39.003Z,7.40
2023-04-24T11:34:11.348Z,8.03
2023-04-24T11:36:39.454Z,7.17
2023-04-24T11:39:09.287Z,6.90
2023-04-24T11:41:37.492Z,5.53
2023-04-24T11:44:07.932Z,7.87
2023-04-24T11:46:36.343Z,8.73
2023-04-24T11:49:04.705Z,9.17
2023-04-24T11:51:43.977Z,6.67
2023-04-24T11:54:17.809Z,4.83
2023-04-24T11:56:47.389Z,7.30
2023-04-24T11:59:15.602Z,7.60
2023-04-24T12:01:47.296Z,8.50
2023-04-24T12:04:16.306Z,9.43
2023-04-24T12:07:02.227Z,6.80
2023-04-24T12:09:42.671Z,7.13
2023-04-24T12:12:13.102Z,7.50
2023-04-24T12:14:50.615Z,5.47
2023-04-24T12:17:19.120Z,6.33
2023-04-24T12:19:49.184Z,7.70
2023-04-24T12:22:17.414Z,7.40
2023-04-24T12:25:03.066Z,8.93
2023-04-24T12:27:33.354Z,7.77
2023-04-24T12:30:06.599Z,6.70
2023-04-24T12:32:34.740Z,9.03
2023-04-24T12:35:07.100Z,7.57
2023-04-24T12:37:37.411Z,7.97
2023-04-24T12:40:09.076Z,5.63
2023-04-24T12:42:38.524Z,6.10
2023-04-24T12:45:09.038Z,5.97
2023-04-24T12:47:37.329Z,8.77
2023-04-24T12:50:07.088Z,10.30
2023-04-24T12:52:35.539Z,7.97
2023-04-24T12:55:04.026Z,7.23
2023-04-24T12:57:33.601Z,6.50
2023-04-24T13:00:01.760Z,6.97
2023-04-24T13:02:32.553Z,7.70
2023-04-24T13:05:01.059Z,8.63
2023-04-24T13:07:30.120Z,6.77
2023-04-24T13:09:58.816Z,7.27
2023-04-24T13:12:27.604Z,10.63
2023-04-24T13:14:57.168Z,6.50
2023-04-24T13:17:25.358Z,7.17
2023-04-24T13:19:53.788Z,6.50
2023-04-24T13:22:22.792Z,4.67
2023-04-24T13:24:51.267Z,7.73
2023-04-24T13:27:20.658Z,5.10
2023-04-24T13:29:50.582Z,5.27
2023-04-24T13:32:20.976Z,5.97
2023-04-24T13:34:49.734Z,5.07
2023-04-24T13:37:17.887Z,8.63
2023-04-24T13:39:46.013Z,6.10
2023-04-24T13:42:14.117Z,5.07
2023-04-24T13:44:42.443Z,7.07
2023-04-24T13:47:10.577Z,7.30
2023-04-24T13:49:40.050Z,12.60
2023-04-24T13:52:08.388Z,5.30
2023-04-24T13:54:36.773Z,7.00
2023-04-24T13:57:05.546Z,5.80
2023-04-24T13:59:33.619Z,6.50
2023-04-24T14:02:01.700Z,7.70
2023-04-24T14:04:29.979Z,8.67
2023-04-24T14:06:59.738Z,7.33
2023-04-24T14:09:27.886Z,4.67
2023-04-24T14:11:56.141Z,6.50
2023-04-24T14:14:24.186Z,6.13
2023-04-24T14:16:52.253Z,9.97
2023-04-24T14:19:20.569Z,9.30
2023-04-24T14:21:48.715Z,7.10
2023-04-24T14:24:18.379Z,10.83
2023-04-24T14:26:46.382Z,7.95
2023-04-24T14:29:15.357Z,10.37
2023-04-24T14:31:43.898Z,8.17
2023-04-24T14:34:12.223Z,9.93
2023-04-24T14:36:40.317Z,7.70
2023-04-24T14:39:08.758Z,11.67
2023-04-24T14:41:38.536Z,10.37
2023-04-24T14:44:07.118Z,8.20
2023-04-24T14:46:36.008Z,6.87
2023-04-24T14:49:04.194Z,8.43
2023-04-24T14:51:32.513Z,6.27
2023-04-24T14:54:00.728Z,5.17
2023-04-24T14:56:29.112Z,7.53
2023-04-24T14:58:58.871Z,7.70
2023-04-24T15:01:27.043Z,7.97
2023-04-24T15:03:55.323Z,6.03
2023-04-24T15:06:23.456Z,6.10
2023-04-24T15:08:51.722Z,9.20
2023-04-24T15:11:19.950Z,5.13
2023-04-24T15:13:48.485Z,6.30
2023-04-24T15:16:18.242Z,7.93
2023-04-24T15:18:46.378Z,6.87
2023-04-24T15:21:14.587Z,5.67
2023-04-24T15:23:42.575Z,7.53
2023-04-24T15:26:10.720Z,5.40
2023-04-24T15:28:38.892Z,4.47
2023-04-24T15:31:06.996Z,4.57
2023-04-24T15:33:36.569Z,4.80
2023-04-24T15:36:12.076Z,5.80
2023-04-24T15:38:40.357Z,5.63
2023-04-24T15:41:08.443Z,7.33
2023-04-24T15:43:36.524Z,5.13
2023-04-24T15:46:05.486Z,9.17
2023-04-24T15:48:34.009Z,7.60
2023-04-24T15:51:03.472Z,5.23
2023-04-24T15:53:32.125Z,8.27
2023-04-24T15:56:00.277Z,7.17
2023-04-24T15:58:28.300Z,8.60
2023-04-24T16:00:56.335Z,5.90
2023-04-24T16:03:24.585Z,5.47
2023-04-24T16:05:54.378Z,6.43
2023-04-24T16:08:23.901Z,4.50
2023-04-24T16:10:52.657Z,5.67
2023-04-24T16:13:20.677Z,4.97
2023-04-24T16:15:48.903Z,7.43
2023-04-24T16:18:17.590Z,5.67
2023-04-24T16:20:45.846Z,4.83
2023-04-24T16:23:14.871Z,6.87
2023-04-24T16:25:46.126Z,7.27
2023-04-24T16:28:15.108Z,6.27
2023-04-24T16:30:43.353Z,5.10
2023-04-24T16:33:16.019Z,6.17
2023-04-24T16:35:44.707Z,7.83
2023-04-24T16:38:13.189Z,5.37
2023-04-24T16:40:42.432Z,6.17
2023-04-24T16:43:12.299Z,6.50
2023-04-24T16:45:40.484Z,5.27
2023-04-24T16:48:11.198Z,5.57
2023-04-24T16:50:39.509Z,4.93
2023-04-24T16:53:07.726Z,10.77
2023-04-24T16:55:36.732Z,5.97
2023-04-24T16:58:05.200Z,7.17
2023-04-24T17:00:35.395Z,5.63
2023-04-24T17:03:03.522Z,6.40
2023-04-24T17:05:31.719Z,5.70
2023-04-24T17:08:00.034Z,5.63
2023-04-24T17:10:29.056Z,6.77
2023-04-24T17:12:57.453Z,6.03
2023-04-24T17:15:26.518Z,6.93
2023-04-24T17:17:56.751Z,5.63
2023-04-24T17:20:28.976Z,5.57
2023-04-24T17:22:58.179Z,8.80
2023-04-24T17:25:26.228Z,8.80
2023-04-24T17:27:55.749Z,6.77
2023-04-24T17:30:24.126Z,7.23
2023-04-24T17:32:52.277Z,8.30
2023-04-24T17:35:22.810Z,5.67
2023-04-24T17:37:51.235Z,4.90
2023-04-24T17:40:19.856Z,8.53
2023-04-24T17:42:48.087Z,5.27
2023-04-24T17:45:16.606Z,8.97
2023-04-24T17:47:44.804Z,6.33
2023-04-24T17:50:13.473Z,6.67
2023-04-24T17:52:43.030Z,9.10
2023-04-24T17:55:11.208Z,6.07
2023-04-24T17:57:39.318Z,4.67
2023-04-24T18:00:08.944Z,6.73
2023-04-24T18:02:37.490Z,6.00
2023-04-24T18:05:06.401Z,7.57
2023-04-24T18:07:34.454Z,5.43
2023-04-24T18:10:03.937Z,6.37
2023-04-24T18:12:32.129Z,6.40
2023-04-24T18:15:13.001Z,5.40
2023-04-24T18:17:42.308Z,5.97
2023-04-24T18:20:11.416Z,5.03
2023-04-24T18:22:40.104Z,6.23
2023-04-24T18:25:11.255Z,9.03
2023-04-24T18:27:39.624Z,7.60
2023-04-24T18:30:10.087Z,6.37
2023-04-24T18:32:39.597Z,7.67
2023-04-24T18:35:08.424Z,9.73
2023-04-24T18:37:36.568Z,5.03
2023-04-24T18:40:04.861Z,6.13
2023-04-24T18:42:34.238Z,9.97
2023-04-24T18:45:02.427Z,6.70
2023-04-24T18:47:31.123Z,6.43
2023-04-24T18:49:59.249Z,6.77
2023-04-24T18:52:27.353Z,7.77
2023-04-24T18:54:55.643Z,7.43
2023-04-24T18:57:23.718Z,7.50
2023-04-24T18:59:53.260Z,7.33
2023-04-24T19:02:21.756Z,8.77
2023-04-24T19:04:50.396Z,5.93
2023-04-24T19:07:19.386Z,7.10
2023-04-24T19:09:47.588Z,8.07
2023-04-24T19:12:15.735Z,7.97
2023-04-24T19:14:43.785Z,5.70
2023-04-24T19:17:13.347Z,8.50
2023-04-24T19:19:41.490Z,7.30
2023-04-24T19:22:09.575Z,7.43
2023-04-24T19:24:37.691Z,11.77
2023-04-24T19:27:05.796Z,9.33
2023-04-24T19:29:33.990Z,11.30
2023-04-24T19:32:02.121Z,10.87
2023-04-24T19:34:32.115Z,9.10
2023-04-24T19:37:00.798Z,10.60
2023-04-24T19:39:29.454Z,10.87
2023-04-24T19:41:57.959Z,13.03
2023-04-24T19:44:26.187Z,9.30
2023-04-24T19:46:54.416Z,7.80
2023-04-24T19:49:22.587Z,6.37
2023-04-24T19:51:52.130Z,4.90
2023-04-24T19:54:20.694Z,4.40
2023-04-24T19:56:49.066Z,5.10
2023-04-24T19:59:17.280Z,4.93
2023-04-24T20:01:45.417Z,5.80
2023-04-24T20:04:13.752Z,5.03
2023-04-24T20:06:41.965Z,5.33
2023-04-24T20:09:11.414Z,4.40
2023-04-24T20:11:39.477Z,5.00
2023-04-24T20:14:07.498Z,3.70
2023-04-24T20:16:35.736Z,4.63
2023-04-24T20:19:03.978Z,5.83
2023-04-24T20:21:32.220Z,4.27
2023-04-24T20:24:00.368Z,5.97
2023-04-24T20:26:29.911Z,4.73
2023-04-24T20:28:57.978Z,3.97
2023-04-24T20:31:26.363Z,6.20
2023-04-24T20:33:54.548Z,3.60
2023-04-24T20:36:22.645Z,5.50
2023-04-24T20:38:51.746Z,4.67
2023-04-24T20:41:19.742Z,4.77
2023-04-24T20:43:49.135Z,5.43
2023-04-24T20:46:17.257Z,4.50
2023-04-24T20:48:45.397Z,5.93
2023-04-24T20:51:13.726Z,4.03
2023-04-24T20:53:41.778Z,5.33
2023-04-24T20:56:11.435Z,5.33
2023-04-24T20:58:39.880Z,3.27
2023-04-24T21:01:09.363Z,4.37
2023-04-24T21:03:37.549Z,5.50
2023-04-24T21:06:06.714Z,6.07
2023-04-24T21:08:36.681Z,4.97
2023-04-24T21:11:04.834Z,7.03
2023-04-24T21:13:32.843Z,5.77
2023-04-24T21:16:01.086Z,6.47
2023-04-24T21:18:30.524Z,5.53
2023-04-24T21:20:58.604Z,6.03
2023-04-24T21:23:26.959Z,7.13
2023-04-24T21:25:55.072Z,4.97
2023-04-24T21:28:25.012Z,7.13
2023-04-24T21:30:53.438Z,7.73
2023-04-24T21:33:21.684Z,9.10
2023-04-24T21:35:51.253Z,7.80
2023-04-24T21:38:19.724Z,4.90
2023-04-24T21:40:47.829Z,8.53
2023-04-24T21:43:16.031Z,6.63
2023-04-24T21:45:44.139Z,7.97
2023-04-24T21:48:12.237Z,6.13
2023-04-24T21:50:40.340Z,8.20
2023-04-24T21:53:09.780Z,9.57
2023-04-24T21:55:37.832Z,6.23
2023-04-24T21:58:05.883Z,6.60
2023-04-24T22:00:35.537Z,5.57
2023-04-24T22:03:04.547Z,5.60
2023-04-24T22:05:33.510Z,5.40
2023-04-24T22:08:01.740Z,8.37
2023-04-24T22:10:31.133Z,7.07
2023-04-24T22:12:59.085Z,8.13
2023-04-24T22:15:27.091Z,7.13
2023-04-24T22:17:55.285Z,7.93
2023-04-24T22:20:23.428Z,7.93
2023-04-24T22:22:51.501Z,8.47
2023-04-24T22:25:19.638Z,11.17
2023-04-24T22:27:49.148Z,4.83
2023-04-24T22:30:17.291Z,8.10
2023-04-24T22:32:45.336Z,6.50
2023-04-24T22:35:13.335Z,7.63
2023-04-24T22:37:41.329Z,7.07
2023-04-24T22:40:10.249Z,5.50
2023-04-24T22:42:38.384Z,5.50
2023-04-24T22:45:11.671Z,8.03
2023-04-24T22:47:40.430Z,8.70
2023-04-24T22:50:10.588Z,6.57
2023-04-24T22:52:43.663Z,5.30
2023-04-24T22:55:12.043Z,7.63
2023-04-24T22:57:40.310Z,6.80
2023-04-24T23:00:12.488Z,7.63
2023-04-24T23:02:41.754Z,9.10
2023-04-24T23:05:10.975Z,6.60
2023-04-24T23:07:38.984Z,7.50
2023-04-24T23:10:07.921Z,6.07
2023-04-24T23:12:36.063Z,6.87
2023-04-24T23:15:04.520Z,9.40
2023-04-24T23:17:34.256Z,10.60
2023-04-24T23:20:02.481Z,10.60
2023-04-24T23:22:30.707Z,9.03
2023-04-24T23:24:58.763Z,7.97
2023-04-24T23:27:26.921Z,6.40
2023-04-24T23:29:54.930Z,9.70
2023-04-24T23:32:23.158Z,6.63
2023-04-24T23:34:52.692Z,11.17
2023-04-24T23:37:20.939Z,6.57
2023-04-24T23:39:48.921Z,8.57
2023-04-24T23:42:16.860Z,8.27
2023-04-24T23:44:44.805Z,9.43
2023-04-24T23:47:12.845Z,7.43
2023-04-24T23:49:41.020Z,10.50
2023-04-24T23:52:10.514Z,9.23
2023-04-24T23:54:38.558Z,7.87
2023-04-24T23:57:06.581Z,7.93
2023-04-24T23:59:34.775Z,5.97
